sensor_id;sensor_type;location;lat;lon;timestamp;P1;durP1;ratioP1;P2;durP2;ratioP2
57233;SDS011;43090;52.604;13.318;2024-02-26T00:01:49;30.33;;;14.02;;
57233;SDS011;43090;52.604;13.318;2024-02-26T00:06:42;30.42;;;14.65;;
57233;SDS011;43090;52.604;13.318;2024-02-26T00:09:10;31.02;;;14.35;;
57233;SDS011;43090;52.604;13.318;2024-02-26T00:11:37;39.25;;;16.33;;
57233;SDS011;43090;52.604;13.318;2024-02-26T00:14:04;39.20;;;18.27;;
57233;SDS011;43090;52.604;13.318;2024-02-26T00:16:31;44.83;;;17.38;;
57233;SDS011;43090;52.604;13.318;2024-02-26T00:18:58;34.65;;;15.75;;
57233;SDS011;43090;52.604;13.318;2024-02-26T00:21:25;39.67;;;15.80;;
57233;SDS011;43090;52.604;13.318;2024-02-26T00:23:52;40.33;;;15.18;;
57233;SDS011;43090;52.604;13.318;2024-02-26T00:26:19;25.75;;;13.88;;
57233;SDS011;43090;52.604;13.318;2024-02-26T00:31:12;37.53;;;13.65;;
57233;SDS011;43090;52.604;13.318;2024-02-26T00:33:39;31.40;;;13.60;;
57233;SDS011;43090;52.604;13.318;2024-02-26T00:36:06;29.80;;;14.13;;
57233;SDS011;43090;52.604;13.318;2024-02-26T00:38:33;32.17;;;15.13;;
57233;SDS011;43090;52.604;13.318;2024-02-26T00:41:00;26.90;;;12.73;;
57233;SDS011;43090;52.604;13.318;2024-02-26T00:45:53;32.50;;;13.90;;
57233;SDS011;43090;52.604;13.318;2024-02-26T00:50:46;22.35;;;12.00;;
57233;SDS011;43090;52.604;13.318;2024-02-26T00:55:39;20.70;;;12.27;;
57233;SDS011;43090;52.604;13.318;2024-02-26T01:00:36;25.30;;;11.68;;
57233;SDS011;43090;52.604;13.318;2024-02-26T01:05:30;25.05;;;11.25;;
57233;SDS011;43090;52.604;13.318;2024-02-26T01:10:29;24.98;;;12.88;;
57233;SDS011;43090;52.604;13.318;2024-02-26T01:12:55;27.25;;;12.32;;
57233;SDS011;43090;52.604;13.318;2024-02-26T01:15:22;26.23;;;12.05;;
57233;SDS011;43090;52.604;13.318;2024-02-26T01:17:50;23.23;;;11.48;;
57233;SDS011;43090;52.604;13.318;2024-02-26T01:20:17;25.17;;;11.27;;
57233;SDS011;43090;52.604;13.318;2024-02-26T01:22:44;21.35;;;12.35;;
57233;SDS011;43090;52.604;13.318;2024-02-26T01:25:11;23.75;;;12.07;;
57233;SDS011;43090;52.604;13.318;2024-02-26T01:27:38;19.67;;;10.77;;
57233;SDS011;43090;52.604;13.318;2024-02-26T01:30:07;22.92;;;11.73;;
57233;SDS011;43090;52.604;13.318;2024-02-26T01:32:34;20.15;;;10.35;;
57233;SDS011;43090;52.604;13.318;2024-02-26T01:35:02;27.92;;;11.45;;
57233;SDS011;43090;52.604;13.318;2024-02-26T01:37:36;20.40;;;10.95;;
57233;SDS011;43090;52.604;13.318;2024-02-26T01:40:03;21.02;;;10.77;;
57233;SDS011;43090;52.604;13.318;2024-02-26T01:42:30;21.33;;;10.80;;
57233;SDS011;43090;52.604;13.318;2024-02-26T01:44:59;24.00;;;11.18;;
57233;SDS011;43090;52.604;13.318;2024-02-26T01:47:29;20.08;;;10.52;;
57233;SDS011;43090;52.604;13.318;2024-02-26T01:49:56;25.05;;;10.52;;
57233;SDS011;43090;52.604;13.318;2024-02-26T01:52:24;23.40;;;11.05;;
57233;SDS011;43090;52.604;13.318;2024-02-26T01:54:51;18.00;;;10.07;;
57233;SDS011;43090;52.604;13.318;2024-02-26T01:59:44;21.23;;;10.27;;
57233;SDS011;43090;52.604;13.318;2024-02-26T02:02:12;20.45;;;10.52;;
57233;SDS011;43090;52.604;13.318;2024-02-26T02:04:41;22.98;;;9.63;;
57233;SDS011;43090;52.604;13.318;2024-02-26T02:07:08;21.83;;;10.60;;
57233;SDS011;43090;52.604;13.318;2024-02-26T02:09:35;20.15;;;9.32;;
57233;SDS011;43090;52.604;13.318;2024-02-26T02:12:06;21.73;;;10.07;;
57233;SDS011;43090;52.604;13.318;2024-02-26T02:14:33;20.40;;;10.18;;
57233;SDS011;43090;52.604;13.318;2024-02-26T02:17:00;17.20;;;8.70;;
57233;SDS011;43090;52.604;13.318;2024-02-26T02:19:27;20.17;;;9.40;;
57233;SDS011;43090;52.604;13.318;2024-02-26T02:24:20;21.88;;;9.65;;
57233;SDS011;43090;52.604;13.318;2024-02-26T02:26:47;17.65;;;9.77;;
57233;SDS011;43090;52.604;13.318;2024-02-26T02:29:14;17.42;;;8.68;;
57233;SDS011;43090;52.604;13.318;2024-02-26T02:46:29;21.58;;;9.82;;
57233;SDS011;43090;52.604;13.318;2024-02-26T02:48:57;19.42;;;10.27;;
57233;SDS011;43090;52.604;13.318;2024-02-26T02:51:27;14.30;;;8.32;;
57233;SDS011;43090;52.604;13.318;2024-02-26T02:53:55;17.13;;;9.27;;
57233;SDS011;43090;52.604;13.318;2024-02-26T02:56:22;18.77;;;9.25;;
57233;SDS011;43090;52.604;13.318;2024-02-26T02:58:49;19.92;;;8.65;;
57233;SDS011;43090;52.604;13.318;2024-02-26T03:01:18;18.60;;;9.10;;
57233;SDS011;43090;52.604;13.318;2024-02-26T03:03:52;20.75;;;9.23;;
57233;SDS011;43090;52.604;13.318;2024-02-26T03:06:19;20.17;;;9.57;;
57233;SDS011;43090;52.604;13.318;2024-02-26T03:08:47;16.58;;;8.85;;
57233;SDS011;43090;52.604;13.318;2024-02-26T03:11:14;15.80;;;7.85;;
57233;SDS011;43090;52.604;13.318;2024-02-26T03:13:42;20.95;;;8.45;;
57233;SDS011;43090;52.604;13.318;2024-02-26T03:16:09;17.42;;;9.38;;
57233;SDS011;43090;52.604;13.318;2024-02-26T03:18:41;15.45;;;8.25;;
57233;SDS011;43090;52.604;13.318;2024-02-26T03:21:08;16.88;;;8.38;;
57233;SDS011;43090;52.604;13.318;2024-02-26T03:23:35;14.85;;;7.53;;
57233;SDS011;43090;52.604;13.318;2024-02-26T03:26:05;18.35;;;9.05;;
57233;SDS011;43090;52.604;13.318;2024-02-26T03:28:37;14.30;;;8.35;;
57233;SDS011;43090;52.604;13.318;2024-02-26T03:31:07;14.85;;;7.22;;
57233;SDS011;43090;52.604;13.318;2024-02-26T03:33:34;14.43;;;8.25;;
57233;SDS011;43090;52.604;13.318;2024-02-26T03:36:05;15.23;;;8.13;;
57233;SDS011;43090;52.604;13.318;2024-02-26T03:38:34;15.05;;;8.80;;
57233;SDS011;43090;52.604;13.318;2024-02-26T03:41:01;16.80;;;9.30;;
57233;SDS011;43090;52.604;13.318;2024-02-26T03:46:18;15.80;;;8.13;;
57233;SDS011;43090;52.604;13.318;2024-02-26T03:48:45;15.20;;;7.68;;
57233;SDS011;43090;52.604;13.318;2024-02-26T03:51:19;18.73;;;8.52;;
57233;SDS011;43090;52.604;13.318;2024-02-26T03:53:56;14.35;;;7.78;;
57233;SDS011;43090;52.604;13.318;2024-02-26T03:57:32;16.80;;;7.90;;
57233;SDS011;43090;52.604;13.318;2024-02-26T04:00:07;16.23;;;8.07;;
57233;SDS011;43090;52.604;13.318;2024-02-26T04:02:34;15.40;;;7.57;;
57233;SDS011;43090;52.604;13.318;2024-02-26T04:05:09;16.67;;;8.07;;
57233;SDS011;43090;52.604;13.318;2024-02-26T04:07:47;20.77;;;8.10;;
57233;SDS011;43090;52.604;13.318;2024-02-26T04:10:29;16.65;;;7.65;;
57233;SDS011;43090;52.604;13.318;2024-02-26T04:13:02;13.80;;;7.53;;
57233;SDS011;43090;52.604;13.318;2024-02-26T04:15:33;18.48;;;8.57;;
57233;SDS011;43090;52.604;13.318;2024-02-26T04:18:05;13.35;;;7.18;;
57233;SDS011;43090;52.604;13.318;2024-02-26T04:20:32;20.35;;;8.02;;
57233;SDS011;43090;52.604;13.318;2024-02-26T04:22:59;14.82;;;7.95;;
57233;SDS011;43090;52.604;13.318;2024-02-26T04:25:30;20.20;;;8.50;;
57233;SDS011;43090;52.604;13.318;2024-02-26T04:27:59;18.65;;;7.75;;
57233;SDS011;43090;52.604;13.318;2024-02-26T04:30:30;16.08;;;8.55;;
57233;SDS011;43090;52.604;13.318;2024-02-26T04:33:00;16.38;;;8.20;;
57233;SDS011;43090;52.604;13.318;2024-02-26T04:35:30;15.50;;;7.95;;
57233;SDS011;43090;52.604;13.318;2024-02-26T04:38:01;16.25;;;8.18;;
57233;SDS011;43090;52.604;13.318;2024-02-26T04:40:35;14.98;;;8.25;;
57233;SDS011;43090;52.604;13.318;2024-02-26T04:43:10;25.05;;;7.65;;
57233;SDS011;43090;52.604;13.318;2024-02-26T04:45:43;13.63;;;7.38;;
57233;SDS011;43090;52.604;13.318;2024-02-26T04:48:16;18.60;;;7.97;;
57233;SDS011;43090;52.604;13.318;2024-02-26T04:50:47;16.40;;;8.20;;
57233;SDS011;43090;52.604;13.318;2024-02-26T04:53:14;12.77;;;7.22;;
57233;SDS011;43090;52.604;13.318;2024-02-26T04:55:53;25.10;;;7.47;;
57233;SDS011;43090;52.604;13.318;2024-02-26T04:58:21;15.80;;;7.90;;
57233;SDS011;43090;52.604;13.318;2024-02-26T05:00:51;19.15;;;8.60;;
57233;SDS011;43090;52.604;13.318;2024-02-26T05:03:20;12.70;;;6.97;;
57233;SDS011;43090;52.604;13.318;2024-02-26T05:05:53;15.55;;;7.68;;
57233;SDS011;43090;52.604;13.318;2024-02-26T05:08:21;15.73;;;7.47;;
57233;SDS011;43090;52.604;13.318;2024-02-26T05:10:53;12.25;;;7.18;;
57233;SDS011;43090;52.604;13.318;2024-02-26T05:13:36;15.27;;;7.63;;
57233;SDS011;43090;52.604;13.318;2024-02-26T05:16:11;12.20;;;7.03;;
57233;SDS011;43090;52.604;13.318;2024-02-26T05:18:44;11.70;;;7.00;;
57233;SDS011;43090;52.604;13.318;2024-02-26T05:25:07;11.13;;;6.57;;
57233;SDS011;43090;52.604;13.318;2024-02-26T05:27:37;13.20;;;7.00;;
57233;SDS011;43090;52.604;13.318;2024-02-26T05:30:04;14.38;;;7.05;;
57233;SDS011;43090;52.604;13.318;2024-02-26T05:32:38;16.13;;;6.90;;
57233;SDS011;43090;52.604;13.318;2024-02-26T05:38:56;14.20;;;7.47;;
57233;SDS011;43090;52.604;13.318;2024-02-26T05:41:24;12.80;;;6.25;;
57233;SDS011;43090;52.604;13.318;2024-02-26T05:43:53;12.27;;;6.40;;
57233;SDS011;43090;52.604;13.318;2024-02-26T05:46:21;18.38;;;6.70;;
57233;SDS011;43090;52.604;13.318;2024-02-26T05:48:52;13.77;;;7.43;;
57233;SDS011;43090;52.604;13.318;2024-02-26T05:51:39;17.33;;;7.38;;
57233;SDS011;43090;52.604;13.318;2024-02-26T05:54:17;12.20;;;7.20;;
57233;SDS011;43090;52.604;13.318;2024-02-26T05:56:53;14.20;;;7.22;;
57233;SDS011;43090;52.604;13.318;2024-02-26T06:02:11;12.43;;;6.57;;
57233;SDS011;43090;52.604;13.318;2024-02-26T06:04:37;14.48;;;6.95;;
57233;SDS011;43090;52.604;13.318;2024-02-26T06:07:09;14.93;;;7.63;;
57233;SDS011;43090;52.604;13.318;2024-02-26T06:09:48;14.20;;;6.80;;
57233;SDS011;43090;52.604;13.318;2024-02-26T06:12:23;16.50;;;7.82;;
57233;SDS011;43090;52.604;13.318;2024-02-26T06:14:56;20.60;;;8.43;;
57233;SDS011;43090;52.604;13.318;2024-02-26T06:17:23;17.77;;;7.90;;
57233;SDS011;43090;52.604;13.318;2024-02-26T06:20:06;17.63;;;7.80;;
57233;SDS011;43090;52.604;13.318;2024-02-26T06:22:41;18.10;;;8.60;;
57233;SDS011;43090;52.604;13.318;2024-02-26T06:25:20;20.98;;;8.70;;
57233;SDS011;43090;52.604;13.318;2024-02-26T06:27:56;20.35;;;9.55;;
57233;SDS011;43090;52.604;13.318;2024-02-26T06:30:32;17.75;;;8.65;;
57233;SDS011;43090;52.604;13.318;2024-02-26T06:33:04;20.20;;;7.82;;
57233;SDS011;43090;52.604;13.318;2024-02-26T07:19:55;11.82;;;7.47;;
57233;SDS011;43090;52.604;13.318;2024-02-26T07:22:33;13.60;;;6.88;;
57233;SDS011;43090;52.604;13.318;2024-02-26T07:26:16;13.23;;;7.38;;
57233;SDS011;43090;52.604;13.318;2024-02-26T07:29:12;17.25;;;8.38;;
57233;SDS011;43090;52.604;13.318;2024-02-26T07:31:39;16.30;;;7.88;;
57233;SDS011;43090;52.604;13.318;2024-02-26T07:34:09;18.45;;;9.70;;
57233;SDS011;43090;52.604;13.318;2024-02-26T07:36:43;15.88;;;8.73;;
57233;SDS011;43090;52.604;13.318;2024-02-26T07:46:26;19.38;;;9.80;;
57233;SDS011;43090;52.604;13.318;2024-02-26T07:51:55;22.10;;;12.68;;
57233;SDS011;43090;52.604;13.318;2024-02-26T07:54:37;26.45;;;13.18;;
57233;SDS011;43090;52.604;13.318;2024-02-26T07:57:43;25.33;;;13.18;;
57233;SDS011;43090;52.604;13.318;2024-02-26T08:00:18;27.95;;;12.68;;
57233;SDS011;43090;52.604;13.318;2024-02-26T08:02:55;23.02;;;12.27;;
57233;SDS011;43090;52.604;13.318;2024-02-26T08:05:52;32.17;;;12.73;;
57233;SDS011;43090;52.604;13.318;2024-02-26T08:08:44;28.00;;;11.75;;
57233;SDS011;43090;52.604;13.318;2024-02-26T08:15:25;20.92;;;11.32;;
57233;SDS011;43090;52.604;13.318;2024-02-26T08:18:23;25.70;;;12.02;;
57233;SDS011;43090;52.604;13.318;2024-02-26T08:20:53;25.40;;;13.15;;
57233;SDS011;43090;52.604;13.318;2024-02-26T08:23:35;33.90;;;13.73;;
57233;SDS011;43090;52.604;13.318;2024-02-26T08:26:32;30.85;;;13.75;;
57233;SDS011;43090;52.604;13.318;2024-02-26T08:29:09;30.48;;;14.88;;
57233;SDS011;43090;52.604;13.318;2024-02-26T08:32:04;34.03;;;13.45;;
57233;SDS011;43090;52.604;13.318;2024-02-26T08:34:36;31.65;;;14.30;;
57233;SDS011;43090;52.604;13.318;2024-02-26T08:37:06;26.25;;;12.73;;
57233;SDS011;43090;52.604;13.318;2024-02-26T08:39:34;28.25;;;13.63;;
57233;SDS011;43090;52.604;13.318;2024-02-26T08:42:05;25.52;;;13.35;;
57233;SDS011;43090;52.604;13.318;2024-02-26T08:44:54;27.45;;;14.20;;
57233;SDS011;43090;52.604;13.318;2024-02-26T08:47:23;28.85;;;13.93;;
57233;SDS011;43090;52.604;13.318;2024-02-26T08:49:52;25.70;;;13.55;;
57233;SDS011;43090;52.604;13.318;2024-02-26T08:52:21;27.05;;;15.15;;
57233;SDS011;43090;52.604;13.318;2024-02-26T08:54:58;27.08;;;13.75;;
57233;SDS011;43090;52.604;13.318;2024-02-26T08:57:40;27.48;;;14.43;;
57233;SDS011;43090;52.604;13.318;2024-02-26T09:03:01;27.15;;;13.73;;
57233;SDS011;43090;52.604;13.318;2024-02-26T09:05:31;31.05;;;14.80;;
57233;SDS011;43090;52.604;13.318;2024-02-26T09:07:58;26.90;;;13.77;;
57233;SDS011;43090;52.604;13.318;2024-02-26T09:12:55;30.05;;;14.77;;
57233;SDS011;43090;52.604;13.318;2024-02-26T09:15:24;26.30;;;14.23;;
57233;SDS011;43090;52.604;13.318;2024-02-26T09:17:51;26.77;;;14.55;;
57233;SDS011;43090;52.604;13.318;2024-02-26T09:20:18;30.58;;;15.07;;
57233;SDS011;43090;52.604;13.318;2024-02-26T09:22:50;31.45;;;13.93;;
57233;SDS011;43090;52.604;13.318;2024-02-26T09:25:17;30.27;;;14.45;;
57233;SDS011;43090;52.604;13.318;2024-02-26T09:27:44;26.23;;;14.38;;
57233;SDS011;43090;52.604;13.318;2024-02-26T09:30:11;25.65;;;13.85;;
57233;SDS011;43090;52.604;13.318;2024-02-26T09:32:45;27.77;;;13.77;;
57233;SDS011;43090;52.604;13.318;2024-02-26T09:35:13;25.63;;;13.85;;
57233;SDS011;43090;52.604;13.318;2024-02-26T09:37:40;24.45;;;13.45;;
57233;SDS011;43090;52.604;13.318;2024-02-26T09:40:07;27.98;;;13.48;;
57233;SDS011;43090;52.604;13.318;2024-02-26T09:42:36;34.13;;;12.50;;
57233;SDS011;43090;52.604;13.318;2024-02-26T09:45:05;25.95;;;13.00;;
57233;SDS011;43090;52.604;13.318;2024-02-26T09:47:35;23.85;;;13.00;;
57233;SDS011;43090;52.604;13.318;2024-02-26T09:57:44;28.25;;;13.02;;
57233;SDS011;43090;52.604;13.318;2024-02-26T10:00:17;24.98;;;13.00;;
57233;SDS011;43090;52.604;13.318;2024-02-26T10:02:48;27.95;;;13.68;;
57233;SDS011;43090;52.604;13.318;2024-02-26T10:05:18;24.52;;;13.85;;
57233;SDS011;43090;52.604;13.318;2024-02-26T10:07:46;24.58;;;14.20;;
57233;SDS011;43090;52.604;13.318;2024-02-26T10:10:13;25.45;;;14.32;;
57233;SDS011;43090;52.604;13.318;2024-02-26T10:16:35;27.50;;;13.50;;
57233;SDS011;43090;52.604;13.318;2024-02-26T10:31:20;26.50;;;11.98;;
57233;SDS011;43090;52.604;13.318;2024-02-26T10:34:08;25.30;;;12.60;;
57233;SDS011;43090;52.604;13.318;2024-02-26T10:36:45;28.02;;;12.95;;
57233;SDS011;43090;52.604;13.318;2024-02-26T10:39:25;27.00;;;11.82;;
57233;SDS011;43090;52.604;13.318;2024-02-26T10:42:09;22.73;;;12.00;;
57233;SDS011;43090;52.604;13.318;2024-02-26T10:45:05;26.27;;;11.50;;
57233;SDS011;43090;52.604;13.318;2024-02-26T10:48:26;19.98;;;11.38;;
57233;SDS011;43090;52.604;13.318;2024-02-26T10:51:28;21.33;;;11.70;;
57233;SDS011;43090;52.604;13.318;2024-02-26T10:53:57;22.77;;;11.02;;
57233;SDS011;43090;52.604;13.318;2024-02-26T10:56:29;25.60;;;10.55;;
57233;SDS011;43090;52.604;13.318;2024-02-26T10:59:03;18.35;;;10.23;;
57233;SDS011;43090;52.604;13.318;2024-02-26T11:01:47;22.08;;;10.98;;
57233;SDS011;43090;52.604;13.318;2024-02-26T11:04:16;18.40;;;9.60;;
57233;SDS011;43090;52.604;13.318;2024-02-26T11:10:32;17.17;;;9.02;;
57233;SDS011;43090;52.604;13.318;2024-02-26T11:16:20;20.25;;;9.20;;
57233;SDS011;43090;52.604;13.318;2024-02-26T11:18:50;18.42;;;9.45;;
57233;SDS011;43090;52.604;13.318;2024-02-26T11:21:37;16.73;;;8.95;;
57233;SDS011;43090;52.604;13.318;2024-02-26T11:24:09;17.70;;;9.18;;
57233;SDS011;43090;52.604;13.318;2024-02-26T11:33:59;17.10;;;7.80;;
57233;SDS011;43090;52.604;13.318;2024-02-26T11:36:34;14.85;;;7.25;;
57233;SDS011;43090;52.604;13.318;2024-02-26T11:39:11;17.08;;;8.50;;
57233;SDS011;43090;52.604;13.318;2024-02-26T11:52:18;14.43;;;7.90;;
57233;SDS011;43090;52.604;13.318;2024-02-26T11:55:01;18.95;;;8.60;;
57233;SDS011;43090;52.604;13.318;2024-02-26T11:57:50;15.75;;;8.23;;
57233;SDS011;43090;52.604;13.318;2024-02-26T12:05:00;18.63;;;8.57;;
57233;SDS011;43090;52.604;13.318;2024-02-26T12:07:30;22.13;;;8.70;;
57233;SDS011;43090;52.604;13.318;2024-02-26T12:10:17;15.52;;;8.48;;
57233;SDS011;43090;52.604;13.318;2024-02-26T12:12:58;14.25;;;7.88;;
57233;SDS011;43090;52.604;13.318;2024-02-26T12:15:45;16.88;;;8.52;;
57233;SDS011;43090;52.604;13.318;2024-02-26T12:18:25;15.55;;;8.63;;
57233;SDS011;43090;52.604;13.318;2024-02-26T12:21:02;15.85;;;8.30;;
57233;SDS011;43090;52.604;13.318;2024-02-26T12:23:37;13.85;;;6.55;;
57233;SDS011;43090;52.604;13.318;2024-02-26T12:26:08;12.75;;;6.90;;
57233;SDS011;43090;52.604;13.318;2024-02-26T12:29:13;15.00;;;7.03;;
57233;SDS011;43090;52.604;13.318;2024-02-26T12:31:51;10.52;;;5.85;;
57233;SDS011;43090;52.604;13.318;2024-02-26T12:34:22;10.85;;;5.65;;
57233;SDS011;43090;52.604;13.318;2024-02-26T12:37:06;12.25;;;6.03;;
57233;SDS011;43090;52.604;13.318;2024-02-26T12:39:47;10.50;;;5.25;;
57233;SDS011;43090;52.604;13.318;2024-02-26T12:42:17;10.93;;;5.35;;
57233;SDS011;43090;52.604;13.318;2024-02-26T12:44:49;8.82;;;4.72;;
57233;SDS011;43090;52.604;13.318;2024-02-26T12:47:41;8.43;;;4.60;;
57233;SDS011;43090;52.604;13.318;2024-02-26T12:52:44;8.50;;;3.63;;
57233;SDS011;43090;52.604;13.318;2024-02-26T12:55:20;8.23;;;3.67;;
57233;SDS011;43090;52.604;13.318;2024-02-26T13:02:12;8.32;;;2.90;;
57233;SDS011;43090;52.604;13.318;2024-02-26T13:05:03;8.52;;;2.97;;
57233;SDS011;43090;52.604;13.318;2024-02-26T13:07:50;6.70;;;3.00;;
57233;SDS011;43090;52.604;13.318;2024-02-26T13:10:22;4.53;;;2.03;;
57233;SDS011;43090;52.604;13.318;2024-02-26T13:12:49;9.65;;;2.47;;
57233;SDS011;43090;52.604;13.318;2024-02-26T13:15:28;5.53;;;2.03;;
57233;SDS011;43090;52.604;13.318;2024-02-26T13:18:00;9.27;;;2.60;;
57233;SDS011;43090;52.604;13.318;2024-02-26T13:21:19;4.95;;;2.85;;
57233;SDS011;43090;52.604;13.318;2024-02-26T13:23:57;4.70;;;2.50;;
57233;SDS011;43090;52.604;13.318;2024-02-26T13:26:29;7.05;;;2.47;;
57233;SDS011;43090;52.604;13.318;2024-02-26T13:29:02;15.30;;;2.83;;
57233;SDS011;43090;52.604;13.318;2024-02-26T13:31:39;5.75;;;2.95;;
57233;SDS011;43090;52.604;13.318;2024-02-26T13:34:10;6.30;;;3.13;;
57233;SDS011;43090;52.604;13.318;2024-02-26T13:36:50;5.82;;;2.33;;
57233;SDS011;43090;52.604;13.318;2024-02-26T13:39:37;4.90;;;2.92;;
57233;SDS011;43090;52.604;13.318;2024-02-26T13:42:07;4.38;;;2.38;;
57233;SDS011;43090;52.604;13.318;2024-02-26T13:44:34;5.38;;;3.10;;
57233;SDS011;43090;52.604;13.318;2024-02-26T13:47:06;8.20;;;2.38;;
57233;SDS011;43090;52.604;13.318;2024-02-26T13:49:43;7.55;;;2.80;;
57233;SDS011;43090;52.604;13.318;2024-02-26T13:54:37;3.83;;;2.05;;
57233;SDS011;43090;52.604;13.318;2024-02-26T13:57:08;5.93;;;2.53;;
57233;SDS011;43090;52.604;13.318;2024-02-26T13:59:35;7.85;;;2.63;;
57233;SDS011;43090;52.604;13.318;2024-02-26T14:04:29;8.02;;;2.92;;
57233;SDS011;43090;52.604;13.318;2024-02-26T14:07:03;7.10;;;3.50;;
57233;SDS011;43090;52.604;13.318;2024-02-26T14:09:30;9.27;;;3.65;;
57233;SDS011;43090;52.604;13.318;2024-02-26T14:12:13;6.75;;;3.75;;
57233;SDS011;43090;52.604;13.318;2024-02-26T14:17:08;9.10;;;3.85;;
57233;SDS011;43090;52.604;13.318;2024-02-26T14:19:35;6.97;;;3.80;;
57233;SDS011;43090;52.604;13.318;2024-02-26T14:25:21;8.65;;;3.60;;
57233;SDS011;43090;52.604;13.318;2024-02-26T14:27:50;9.35;;;4.03;;
57233;SDS011;43090;52.604;13.318;2024-02-26T14:32:43;10.15;;;3.88;;
57233;SDS011;43090;52.604;13.318;2024-02-26T14:35:25;11.00;;;4.60;;
57233;SDS011;43090;52.604;13.318;2024-02-26T14:41:35;8.75;;;4.43;;
57233;SDS011;43090;52.604;13.318;2024-02-26T14:44:10;9.30;;;4.30;;
57233;SDS011;43090;52.604;13.318;2024-02-26T14:47:24;12.57;;;4.65;;
57233;SDS011;43090;52.604;13.318;2024-02-26T14:59:05;12.05;;;3.92;;
57233;SDS011;43090;52.604;13.318;2024-02-26T15:01:53;11.02;;;4.40;;
57233;SDS011;43090;52.604;13.318;2024-02-26T15:04:30;11.85;;;4.45;;
57233;SDS011;43090;52.604;13.318;2024-02-26T15:11:06;6.85;;;4.07;;
57233;SDS011;43090;52.604;13.318;2024-02-26T15:18:16;10.50;;;4.43;;
57233;SDS011;43090;52.604;13.318;2024-02-26T15:27:23;11.20;;;5.90;;
57233;SDS011;43090;52.604;13.318;2024-02-26T15:30:42;14.63;;;6.10;;
57233;SDS011;43090;52.604;13.318;2024-02-26T15:33:11;8.48;;;5.00;;
57233;SDS011;43090;52.604;13.318;2024-02-26T15:35:39;14.15;;;5.93;;
57233;SDS011;43090;52.604;13.318;2024-02-26T15:38:06;15.23;;;5.78;;
57233;SDS011;43090;52.604;13.318;2024-02-26T15:43:22;10.13;;;5.68;;
57233;SDS011;43090;52.604;13.318;2024-02-26T15:45:49;16.42;;;5.82;;
57233;SDS011;43090;52.604;13.318;2024-02-26T15:48:19;13.65;;;6.80;;
57233;SDS011;43090;52.604;13.318;2024-02-26T15:50:49;13.40;;;6.22;;
57233;SDS011;43090;52.604;13.318;2024-02-26T15:54:08;14.75;;;7.18;;
57233;SDS011;43090;52.604;13.318;2024-02-26T16:33:09;18.35;;;8.80;;
57233;SDS011;43090;52.604;13.318;2024-02-26T16:43:06;25.38;;;9.55;;
57233;SDS011;43090;52.604;13.318;2024-02-26T16:49:37;25.48;;;11.80;;
57233;SDS011;43090;52.604;13.318;2024-02-26T16:57:13;28.77;;;11.20;;
57233;SDS011;43090;52.604;13.318;2024-02-26T17:04:01;21.08;;;9.65;;
57233;SDS011;43090;52.604;13.318;2024-02-26T17:06:34;22.70;;;9.45;;
57233;SDS011;43090;52.604;13.318;2024-02-26T17:09:03;18.98;;;9.38;;
57233;SDS011;43090;52.604;13.318;2024-02-26T17:11:31;22.05;;;10.07;;
57233;SDS011;43090;52.604;13.318;2024-02-26T17:17:19;26.48;;;10.75;;
57233;SDS011;43090;52.604;13.318;2024-02-26T17:20:37;20.38;;;9.57;;
57233;SDS011;43090;52.604;13.318;2024-02-26T17:23:06;27.48;;;11.88;;
57233;SDS011;43090;52.604;13.318;2024-02-26T17:25:59;25.92;;;11.32;;
57233;SDS011;43090;52.604;13.318;2024-02-26T17:29:01;26.33;;;11.10;;
57233;SDS011;43090;52.604;13.318;2024-02-26T17:46:57;24.90;;;10.77;;
57233;SDS011;43090;52.604;13.318;2024-02-26T17:49:27;22.05;;;10.77;;
57233;SDS011;43090;52.604;13.318;2024-02-26T17:51:58;20.02;;;9.25;;
57233;SDS011;43090;52.604;13.318;2024-02-26T17:54:46;20.15;;;10.43;;
57233;SDS011;43090;52.604;13.318;2024-02-26T17:57:16;21.73;;;9.93;;
57233;SDS011;43090;52.604;13.318;2024-02-26T18:00:49;19.40;;;10.10;;
57233;SDS011;43090;52.604;13.318;2024-02-26T18:06:01;26.33;;;11.48;;
57233;SDS011;43090;52.604;13.318;2024-02-26T18:08:29;26.23;;;10.85;;
57233;SDS011;43090;52.604;13.318;2024-02-26T18:10:59;21.48;;;10.30;;
57233;SDS011;43090;52.604;13.318;2024-02-26T18:13:29;33.30;;;10.90;;
57233;SDS011;43090;52.604;13.318;2024-02-26T18:15:55;24.67;;;10.48;;
57233;SDS011;43090;52.604;13.318;2024-02-26T18:18:24;21.73;;;9.82;;
57233;SDS011;43090;52.604;13.318;2024-02-26T18:21:03;22.45;;;9.20;;
57233;SDS011;43090;52.604;13.318;2024-02-26T18:23:30;17.65;;;8.85;;
57233;SDS011;43090;52.604;13.318;2024-02-26T18:26:07;17.63;;;8.95;;
57233;SDS011;43090;52.604;13.318;2024-02-26T18:31:17;18.95;;;8.82;;
57233;SDS011;43090;52.604;13.318;2024-02-26T18:34:29;20.23;;;8.77;;
57233;SDS011;43090;52.604;13.318;2024-02-26T18:40:05;19.73;;;8.27;;
57233;SDS011;43090;52.604;13.318;2024-02-26T18:50:57;16.77;;;8.18;;
57233;SDS011;43090;52.604;13.318;2024-02-26T18:59:32;18.92;;;7.25;;
57233;SDS011;43090;52.604;13.318;2024-02-26T19:02:51;14.43;;;6.78;;
57233;SDS011;43090;52.604;13.318;2024-02-26T19:09:20;13.63;;;7.05;;
57233;SDS011;43090;52.604;13.318;2024-02-26T19:14:45;17.67;;;7.25;;
57233;SDS011;43090;52.604;13.318;2024-02-26T19:17:16;15.55;;;7.20;;
57233;SDS011;43090;52.604;13.318;2024-02-26T19:30:46;13.43;;;5.78;;
57233;SDS011;43090;52.604;13.318;2024-02-26T19:33:28;15.68;;;6.82;;
57233;SDS011;43090;52.604;13.318;2024-02-26T19:43:14;10.27;;;4.90;;
57233;SDS011;43090;52.604;13.318;2024-02-26T19:50:22;11.65;;;5.93;;
57233;SDS011;43090;52.604;13.318;2024-02-26T19:53:00;11.75;;;5.68;;
57233;SDS011;43090;52.604;13.318;2024-02-26T20:03:26;10.18;;;5.30;;
57233;SDS011;43090;52.604;13.318;2024-02-26T20:06:01;12.32;;;6.50;;
57233;SDS011;43090;52.604;13.318;2024-02-26T20:09:00;8.90;;;4.60;;
57233;SDS011;43090;52.604;13.318;2024-02-26T20:37:59;8.50;;;4.43;;
57233;SDS011;43090;52.604;13.318;2024-02-26T20:44:42;8.75;;;4.25;;
57233;SDS011;43090;52.604;13.318;2024-02-26T20:47:14;7.53;;;4.10;;
57233;SDS011;43090;52.604;13.318;2024-02-26T21:22:00;8.23;;;4.40;;
57233;SDS011;43090;52.604;13.318;2024-02-26T21:24:46;7.53;;;4.18;;
57233;SDS011;43090;52.604;13.318;2024-02-26T21:36:50;8.13;;;4.32;;
57233;SDS011;43090;52.604;13.318;2024-02-26T22:29:46;6.07;;;3.22;;
57233;SDS011;43090;52.604;13.318;2024-02-26T22:32:45;7.07;;;3.47;;
57233;SDS011;43090;52.604;13.318;2024-02-26T22:35:45;9.63;;;4.15;;
57233;SDS011;43090;52.604;13.318;2024-02-26T22:38:12;7.63;;;3.83;;
57233;SDS011;43090;52.604;13.318;2024-02-26T22:40:41;9.15;;;3.83;;
57233;SDS011;43090;52.604;13.318;2024-02-26T22:43:11;12.50;;;4.18;;
57233;SDS011;43090;52.604;13.318;2024-02-26T22:45:44;11.27;;;4.18;;
57233;SDS011;43090;52.604;13.318;2024-02-26T22:48:34;10.80;;;4.55;;
57233;SDS011;43090;52.604;13.318;2024-02-26T22:52:08;10.52;;;4.10;;
57233;SDS011;43090;52.604;13.318;2024-02-26T22:54:55;7.95;;;4.28;;
57233;SDS011;43090;52.604;13.318;2024-02-26T23:01:48;8.82;;;4.55;;
57233;SDS011;43090;52.604;13.318;2024-02-26T23:04:32;8.57;;;3.95;;
57233;SDS011;43090;52.604;13.318;2024-02-26T23:07:17;6.75;;;3.95;;